Time;durP1;ratioP1;P1;durP2;ratioP2;P2;SDS_P1;SDS_P2;PMS_P1;PMS_P2;Temp;Humidity;BMP_temperature;BMP_pressure;BME280_temperature;BME280_humidity;BME280_pressure;Samples;Min_cycle;Max_cycle;Signal;HPM_P1;HPM_P2
2024/03/20 05:15:12;;;;;;;12.60;9.10;;;7.40;84.40;;;;;;5092840;28;20403;-65
2024/03/20 05:17:58;;;;;;;13.40;10.52;;;7.50;84.50;;;;;;5105591;27;20496;-65
2024/03/20 05:20:44;;;;;;;16.60;10.93;;;7.50;84.60;;;;;;5111449;28;20110;-65
2024/03/20 05:23:30;;;;;;;14.55;10.20;;;7.50;84.80;;;;;;5097200;28;20071;-65
2024/03/20 05:26:16;;;;;;;17.30;10.02;;;7.50;84.90;;;;;;5109088;28;20063;-65
2024/03/20 05:29:05;;;;;;;17.63;10.15;;;7.50;84.90;;;;;;5105346;28;20126;-64
2024/03/20 05:31:51;;;;;;;15.95;10.55;;;7.60;85.10;;;;;;5103018;28;20054;-64
2024/03/20 05:34:37;;;;;;;16.92;11.18;;;7.60;85.00;;;;;;5101871;28;20039;-66
2024/03/20 05:37:23;;;;;;;17.27;10.65;;;7.60;85.00;;;;;;5105147;28;20046;-65
2024/03/20 05:40:09;;;;;;;13.05;9.52;;;7.60;85.10;;;;;;5103267;28;20039;-65
2024/03/20 05:42:55;;;;;;;14.90;10.73;;;7.60;85.10;;;;;;5111153;28;20507;-62
2024/03/20 05:45:41;;;;;;;14.68;10.18;;;7.60;85.20;;;;;;5108649;28;20491;-65
2024/03/20 05:48:27;;;;;;;15.43;10.80;;;7.60;85.20;;;;;;5104543;28;20131;-64
2024/03/20 05:51:13;;;;;;;16.38;10.77;;;7.60;85.30;;;;;;5103098;28;20306;-64
2024/03/20 05:53:59;;;;;;;16.10;10.40;;;7.60;85.30;;;;;;5103048;28;20036;-64
2024/03/20 05:56:45;;;;;;;16.30;11.02;;;7.60;85.40;;;;;;5097096;28;20043;-64
2024/03/20 05:59:32;;;;;;;15.18;11.07;;;7.70;85.50;;;;;;5109492;28;20111;-64
2024/03/20 06:02:17;;;;;;;16.05;11.68;;;7.80;85.70;;;;;;5094178;28;20122;-64
2024/03/20 06:05:04;;;;;;;16.35;11.57;;;7.70;85.60;;;;;;5111082;28;20148;-65
2024/03/20 06:07:50;;;;;;;16.15;11.10;;;7.80;85.60;;;;;;5108824;28;20059;-64
2024/03/20 06:10:36;;;;;;;17.88;11.80;;;7.80;85.70;;;;;;5091740;28;20067;-65
2024/03/20 06:13:22;;;;;;;19.02;12.25;;;7.80;85.70;;;;;;5106631;28;20046;-64
2024/03/20 06:16:08;;;;;;;18.15;10.85;;;7.90;85.80;;;;;;5110348;28;20040;-64
2024/03/20 06:18:54;;;;;;;17.17;11.43;;;7.90;85.80;;;;;;5100850;28;20553;-64
2024/03/20 06:21:41;;;;;;;15.18;10.75;;;8.00;85.90;;;;;;5096834;28;20411;-65
2024/03/20 06:24:27;;;;;;;29.20;12.30;;;8.00;85.90;;;;;;5104851;28;20043;-65
2024/03/20 06:27:13;;;;;;;16.70;10.95;;;8.00;85.90;;;;;;5104740;28;20457;-63
2024/03/20 06:29:59;;;;;;;17.00;10.88;;;8.10;86.00;;;;;;5104494;28;20449;-66
2024/03/20 06:32:46;;;;;;;16.27;10.25;;;8.10;86.00;;;;;;5101093;28;20042;-66
2024/03/20 06:35:33;;;;;;;15.35;10.57;;;8.20;86.10;;;;;;5114946;28;20036;-64
2024/03/20 06:38:19;;;;;;;16.52;10.65;;;8.20;86.10;;;;;;5113728;28;20114;-65
2024/03/20 06:41:05;;;;;;;21.95;11.75;;;8.30;86.00;;;;;;5100516;28;20028;-66
2024/03/20 06:43:52;;;;;;;15.77;11.80;;;8.30;85.90;;;;;;5101282;28;20521;-63
2024/03/20 06:46:38;;;;;;;19.25;11.25;;;8.40;85.90;;;;;;5096942;28;20048;-65
2024/03/20 06:49:25;;;;;;;16.05;11.30;;;8.40;85.80;;;;;;5110194;28;20445;-64
2024/03/20 06:52:16;;;;;;;18.02;12.73;;;8.40;85.80;;;;;;5096891;28;20040;-65
2024/03/20 06:55:02;;;;;;;18.33;11.88;;;8.50;85.80;;;;;;5104040;28;20086;-65
2024/03/20 06:57:48;;;;;;;19.48;11.40;;;8.50;85.80;;;;;;5106214;28;20476;-64
2024/03/20 07:00:34;;;;;;;14.65;10.63;;;8.60;85.90;;;;;;5108535;28;20506;-65
2024/03/20 07:03:22;;;;;;;19.67;12.38;;;8.60;85.90;;;;;;5097885;28;20044;-65
2024/03/20 07:06:08;;;;;;;16.00;11.02;;;8.70;85.90;;;;;;5113151;28;20043;-66
2024/03/20 07:08:54;;;;;;;19.42;11.10;;;8.70;85.80;;;;;;5113060;28;20047;-64
2024/03/20 07:11:40;;;;;;;15.68;11.18;;;8.70;85.80;;;;;;5104270;28;20128;-64
2024/03/20 07:14:28;;;;;;;19.98;12.13;;;8.80;85.80;;;;;;5105270;28;20180;-64
2024/03/20 07:17:14;;;;;;;18.63;11.65;;;8.80;86.10;;;;;;5104718;28;20495;-62
2024/03/20 07:20:00;;;;;;;16.92;11.27;;;8.90;86.20;;;;;;5103370;28;20495;-65
2024/03/20 07:22:46;;;;;;;20.52;11.25;;;9.00;86.00;;;;;;5113315;28;20532;-64
2024/03/20 07:25:32;;;;;;;16.23;11.48;;;9.10;86.00;;;;;;5112464;28;20074;-64
2024/03/20 07:28:18;;;;;;;21.85;12.57;;;9.20;86.00;;;;;;5108512;28;20054;-65
2024/03/20 07:31:05;;;;;;;18.02;11.93;;;9.20;86.00;;;;;;5114174;28;20033;-65
2024/03/20 07:33:52;;;;;;;18.40;10.93;;;9.30;86.20;;;;;;5100228;28;20376;-65
2024/03/20 07:36:37;;;;;;;16.02;10.80;;;9.30;86.10;;;;;;5103299;28;20502;-66
2024/03/20 07:39:26;;;;;;;16.33;11.63;;;9.40;85.90;;;;;;5103298;28;20054;-65
2024/03/20 07:42:11;;;;;;;18.75;12.40;;;9.50;85.70;;;;;;5115097;28;20172;-65
2024/03/20 07:44:57;;;;;;;17.00;12.07;;;9.50;85.80;;;;;;5107078;28;20508;-63
2024/03/20 07:47:44;;;;;;;17.92;11.55;;;9.50;85.50;;;;;;5113149;28;20052;-67
2024/03/20 07:50:31;;;;;;;19.05;12.25;;;9.50;85.20;;;;;;5101174;28;20040;-66
2024/03/20 07:53:17;;;;;;;21.17;13.18;;;9.60;85.20;;;;;;5106746;28;20055;-66
2024/03/20 07:56:05;;;;;;;19.25;12.07;;;9.60;85.10;;;;;;5110638;28;20036;-66
2024/03/20 07:58:51;;;;;;;17.52;12.77;;;9.70;85.00;;;;;;5113571;28;20040;-66
2024/03/20 08:01:39;;;;;;;18.05;13.13;;;9.70;85.00;;;;;;5109039;28;20058;-64
2024/03/20 08:04:25;;;;;;;20.05;12.63;;;9.80;85.40;;;;;;5101705;28;20059;-66
2024/03/20 08:07:11;;;;;;;20.35;13.95;;;9.90;85.00;;;;;;5105828;28;20052;-67
2024/03/20 08:09:57;;;;;;;19.45;12.82;;;9.90;84.70;;;;;;5106849;28;20032;-67
2024/03/20 08:12:43;;;;;;;21.30;13.00;;;10.00;84.30;;;;;;5108160;28;20036;-66
2024/03/20 08:15:29;;;;;;;18.63;12.88;;;10.10;84.30;;;;;;5102448;28;20113;-65
2024/03/20 08:18:15;;;;;;;23.35;14.82;;;10.10;84.20;;;;;;5100324;28;20047;-66
2024/03/20 08:21:01;;;;;;;21.63;14.02;;;10.20;84.10;;;;;;5112178;28;20032;-66
2024/03/20 08:23:47;;;;;;;18.77;14.07;;;10.20;83.80;;;;;;5108905;28;20090;-66
2024/03/20 08:26:33;;;;;;;20.55;12.32;;;10.40;83.60;;;;;;5093515;28;20514;-65
2024/03/20 08:29:19;;;;;;;19.73;14.38;;;10.40;83.50;;;;;;5101879;28;20042;-65
2024/03/20 08:32:05;;;;;;;23.60;15.43;;;10.50;83.40;;;;;;5103727;28;20043;-65
2024/03/20 08:34:51;;;;;;;18.75;13.10;;;10.60;83.20;;;;;;5109097;28;20471;-65
2024/03/20 08:37:37;;;;;;;17.55;12.98;;;10.60;82.90;;;;;;5107442;28;20179;-66
2024/03/20 08:40:22;;;;;;;17.80;12.55;;;10.70;82.40;;;;;;5098085;28;20050;-66
2024/03/20 08:43:10;;;;;;;19.05;12.15;;;10.80;82.30;;;;;;5082717;28;20036;-65
2024/03/20 08:45:56;;;;;;;19.60;12.70;;;10.90;82.10;;;;;;5106770;28;20042;-66
2024/03/20 08:48:41;;;;;;;19.88;11.60;;;11.00;81.20;;;;;;5104681;28;20058;-66
2024/03/20 08:51:27;;;;;;;18.20;12.23;;;11.10;80.70;;;;;;5103784;28;20042;-66
2024/03/20 08:54:13;;;;;;;19.02;12.57;;;11.20;80.50;;;;;;5100465;28;20042;-65
2024/03/20 08:57:03;;;;;;;20.92;11.48;;;11.30;80.30;;;;;;5106122;28;20502;-66
2024/03/20 08:59:49;;;;;;;17.20;11.88;;;11.40;79.90;;;;;;5099597;28;20388;-65
2024/03/20 09:02:35;;;;;;;18.13;11.80;;;11.50;79.50;;;;;;5098466;28;20035;-77
2024/03/20 09:05:21;;;;;;;22.10;12.32;;;11.60;79.00;;;;;;5105069;28;20395;-77
2024/03/20 09:08:10;;;;;;;20.05;12.15;;;11.70;78.60;;;;;;5111968;28;20058;-77
2024/03/20 09:10:56;;;;;;;15.88;11.30;;;11.70;78.10;;;;;;5105686;28;20035;-77
2024/03/20 09:13:43;;;;;;;18.75;11.52;;;11.80;77.40;;;;;;5112348;28;20062;-77
2024/03/20 09:16:29;;;;;;;15.07;10.60;;;12.00;77.20;;;;;;5096560;28;20043;-77
2024/03/20 09:19:16;;;;;;;14.25;9.60;;;12.00;76.70;;;;;;5106410;28;20047;-76
2024/03/20 09:22:02;;;;;;;15.93;10.40;;;12.10;76.20;;;;;;5098536;28;20048;-76
2024/03/20 09:24:48;;;;;;;19.08;10.43;;;12.20;75.80;;;;;;5106290;28;20043;-77
2024/03/20 09:27:34;;;;;;;15.13;9.85;;;12.30;75.40;;;;;;5106157;28;20649;-77
2024/03/20 09:30:21;;;;;;;14.25;9.52;;;12.40;75.10;;;;;;5105403;28;20123;-77
2024/03/20 09:33:07;;;;;;;16.02;8.68;;;12.50;75.00;;;;;;5109190;28;20050;-75
2024/03/20 09:35:53;;;;;;;15.02;9.20;;;12.60;74.90;;;;;;5109157;28;20063;-76
2024/03/20 09:38:39;;;;;;;13.35;9.30;;;12.70;74.80;;;;;;5109921;28;20130;-76
2024/03/20 09:41:25;;;;;;;12.77;9.05;;;12.80;74.80;;;;;;5106001;28;20461;-77
2024/03/20 09:44:13;;;;;;;16.45;10.07;;;12.80;74.70;;;;;;5108531;28;20036;-77
2024/03/20 09:47:00;;;;;;;16.83;9.25;;;12.90;74.50;;;;;;5104017;28;20139;-75
2024/03/20 09:49:47;;;;;;;11.90;9.02;;;13.00;74.30;;;;;;5105950;28;20035;-77
2024/03/20 09:52:33;;;;;;;13.10;8.30;;;13.10;74.10;;;;;;5100956;28;20048;-76
2024/03/20 09:55:19;;;;;;;15.43;9.05;;;13.20;74.00;;;;;;5122597;28;20115;-77
2024/03/20 09:58:06;;;;;;;12.30;8.70;;;13.40;73.80;;;;;;5125204;28;20031;-75
2024/03/20 10:00:52;;;;;;;11.98;6.60;;;13.40;73.70;;;;;;5129878;28;20047;-75
2024/03/20 10:03:39;;;;;;;11.77;7.18;;;13.60;73.80;;;;;;5120084;28;20075;-77
2024/03/20 10:06:26;;;;;;;11.43;7.80;;;13.70;73.80;;;;;;5108287;28;20051;-77
2024/03/20 10:09:16;;;;;;;10.02;6.22;;;13.80;73.70;;;;;;5110790;28;20074;-77
2024/03/20 10:12:02;;;;;;;12.57;6.43;;;13.90;73.50;;;;;;5095671;28;20492;-76
2024/03/20 10:14:48;;;;;;;17.48;7.57;;;14.00;73.50;;;;;;5101672;28;20496;-76
2024/03/20 10:17:35;;;;;;;11.00;6.20;;;14.10;73.20;;;;;;5101676;28;20126;-77
2024/03/20 10:20:21;;;;;;;11.40;6.03;;;14.20;73.20;;;;;;5106120;28;20070;-77
2024/03/20 10:23:13;;;;;;;11.05;6.50;;;14.30;73.50;;;;;;5099363;28;20044;-77
2024/03/20 10:25:59;;;;;;;10.32;5.63;;;14.40;73.50;;;;;;5089161;28;20127;-76
2024/03/20 10:28:50;;;;;;;10.40;6.32;;;14.50;73.60;;;;;;5108266;28;20051;-77
2024/03/20 10:31:37;;;;;;;13.07;5.63;;;14.60;73.40;;;;;;5110109;28;20088;-77
2024/03/20 10:34:24;;;;;;;10.55;5.80;;;14.70;73.50;;;;;;5110815;28;20055;-78
2024/03/20 10:37:12;;;;;;;10.05;6.03;;;14.80;73.60;;;;;;5101665;28;20032;-77
2024/03/20 10:39:59;;;;;;;19.02;6.60;;;14.90;73.80;;;;;;5109635;28;20043;-78
2024/03/20 10:42:50;;;;;;;13.43;6.85;;;15.00;74.10;;;;;;5111846;28;20099;-77
2024/03/20 10:45:37;;;;;;;10.68;5.43;;;15.10;74.00;;;;;;5113632;28;20039;-77
2024/03/20 10:48:24;;;;;;;10.50;5.90;;;15.20;74.10;;;;;;5126301;27;20395;-78
2024/03/20 10:51:14;;;;;;;8.82;5.93;;;15.20;74.10;;;;;;5115972;28;20036;-77
2024/03/20 10:54:01;;;;;;;12.70;6.47;;;15.30;74.40;;;;;;5125589;27;20466;-77
2024/03/20 10:56:55;;;;;;;11.00;6.45;;;15.40;74.40;;;;;;5029619;28;20045;-78
2024/03/20 10:59:41;;;;;;;12.52;6.63;;;15.50;74.20;;;;;;5113308;28;20530;-77
2024/03/20 11:02:27;;;;;;;11.60;6.43;;;15.70;74.40;;;;;;5100553;28;20028;-77
2024/03/20 11:05:39;;;;;;;15.32;6.43;;;15.80;74.30;;;;;;5113081;28;20064;-76
2024/03/20 11:08:24;;;;;;;12.43;6.85;;;15.90;74.30;;;;;;5091279;28;20056;-76
2024/03/20 11:11:12;;;;;;;12.68;6.38;;;16.10;75.00;;;;;;5103291;28;20043;-78
2024/03/20 11:14:10;;;;;;;13.45;6.60;;;16.20;74.40;;;;;;5100494;28;20076;-77
2024/03/20 11:17:03;;;;;;;12.50;7.50;;;16.30;74.40;;;;;;4998088;28;20463;-78
2024/03/20 11:19:51;;;;;;;13.82;7.22;;;16.50;74.70;;;;;;5110598;28;20368;-77
2024/03/20 11:22:37;;;;;;;13.50;7.05;;;16.50;74.60;;;;;;5114425;28;20395;-78
2024/03/20 11:25:23;;;;;;;13.60;7.78;;;16.60;74.60;;;;;;5111584;28;20380;-78
2024/03/20 11:28:10;;;;;;;11.57;6.70;;;16.80;74.50;;;;;;5097555;28;20055;-77
2024/03/20 11:30:56;;;;;;;12.75;7.50;;;16.80;74.40;;;;;;5107834;28;20043;-78
2024/03/20 11:33:43;;;;;;;12.35;6.70;;;17.00;74.40;;;;;;5101920;28;20079;-77
2024/03/20 11:36:30;;;;;;;11.52;7.60;;;17.10;74.30;;;;;;5097823;28;20058;-77
2024/03/20 11:39:16;;;;;;;12.45;7.18;;;17.20;74.20;;;;;;5001130;28;20132;-77
2024/03/20 11:42:03;;;;;;;11.32;6.93;;;17.20;74.20;;;;;;5008998;28;20069;-78
2024/03/20 11:44:49;;;;;;;13.90;7.25;;;17.30;73.90;;;;;;5107995;28;20047;-78
2024/03/20 11:47:35;;;;;;;10.85;7.45;;;17.40;73.80;;;;;;5095711;28;20048;-78
2024/03/20 11:50:21;;;;;;;10.88;6.45;;;17.40;73.70;;;;;;5101040;28;20832;-77
2024/03/20 11:53:09;;;;;;;12.88;7.00;;;17.50;73.70;;;;;;5107857;28;20031;-78
2024/03/20 11:55:55;;;;;;;14.93;8.02;;;17.60;73.40;;;;;;5098842;28;20047;-78
2024/03/20 11:58:41;;;;;;;11.52;7.18;;;17.60;73.20;;;;;;5109413;28;20051;-77
2024/03/20 12:01:28;;;;;;;9.38;6.28;;;17.70;73.20;;;;;;5112160;28;20066;-77
2024/03/20 12:04:14;;;;;;;17.17;7.78;;;17.80;73.40;;;;;;5097827;28;20047;-78
2024/03/20 12:07:00;;;;;;;11.00;6.53;;;17.80;72.80;;;;;;5106122;28;20055;-78
2024/03/20 12:09:47;;;;;;;13.57;8.63;;;17.80;72.70;;;;;;5109881;28;20048;-78
2024/03/20 12:12:33;;;;;;;12.32;7.47;;;17.80;72.70;;;;;;5039452;28;20053;-79
2024/03/20 12:15:21;;;;;;;17.75;8.50;;;17.80;72.70;;;;;;5108398;28;20047;-77
2024/03/20 12:18:08;;;;;;;13.07;7.60;;;17.90;72.70;;;;;;5101826;28;20043;-78
2024/03/20 12:20:54;;;;;;;16.55;7.65;;;18.00;72.80;;;;;;5107052;28;20046;-78
2024/03/20 12:23:40;;;;;;;11.50;7.38;;;18.00;72.80;;;;;;5101727;28;20051;-76
2024/03/20 12:26:28;;;;;;;12.60;6.88;;;18.10;72.70;;;;;;5110675;28;20131;-77
2024/03/20 12:29:14;;;;;;;14.02;6.85;;;18.10;72.50;;;;;;5097444;28;20055;-78
2024/03/20 12:32:00;;;;;;;12.93;7.43;;;18.10;72.30;;;;;;5104365;28;20048;-77
2024/03/20 12:34:46;;;;;;;11.55;7.15;;;18.10;72.40;;;;;;5095775;28;20044;-78
2024/03/20 12:37:33;;;;;;;11.07;6.90;;;18.20;72.40;;;;;;5101494;28;20039;-78
2024/03/20 12:40:19;;;;;;;10.77;7.00;;;18.20;72.20;;;;;;5100777;28;20051;-77
2024/03/20 12:43:05;;;;;;;10.73;6.60;;;18.30;72.50;;;;;;5114030;28;20079;-78
2024/03/20 12:45:51;;;;;;;11.27;6.53;;;18.30;71.90;;;;;;5115944;28;20052;-77
2024/03/20 12:48:37;;;;;;;10.73;7.10;;;18.30;71.60;;;;;;5095929;28;20042;-74
2024/03/20 12:51:23;;;;;;;12.75;7.00;;;18.30;71.90;;;;;;5112824;28;20077;-75
2024/03/20 12:54:17;;;;;;;9.32;6.20;;;18.40;72.00;;;;;;5110033;28;20466;-77
2024/03/20 12:57:03;;;;;;;12.73;6.82;;;18.40;71.70;;;;;;5103046;28;20390;-77
2024/03/20 12:59:49;;;;;;;12.10;6.70;;;18.50;71.70;;;;;;5107994;28;20067;-77
2024/03/20 13:02:35;;;;;;;11.45;6.78;;;18.50;71.70;;;;;;5112653;28;20050;-76
2024/03/20 13:05:21;;;;;;;9.75;6.03;;;18.60;71.50;;;;;;5113470;28;20179;-77
2024/03/20 13:08:13;;;;;;;14.25;7.20;;;18.60;71.70;;;;;;5094948;28;20101;-78
2024/03/20 13:10:59;;;;;;;9.90;6.20;;;18.70;71.60;;;;;;4993586;28;20046;-78
2024/03/20 13:13:47;;;;;;;11.57;6.93;;;18.70;71.60;;;;;;5098448;28;20071;-77
2024/03/20 13:16:33;;;;;;;10.85;7.25;;;18.70;71.00;;;;;;5128047;28;20023;-76
2024/03/20 13:19:20;;;;;;;10.30;6.32;;;18.70;70.90;;;;;;5122634;28;20041;-76
2024/03/20 13:22:18;;;;;;;8.70;5.55;;;18.80;70.60;;;;;;5125056;28;20051;-76
2024/03/20 13:25:06;;;;;;;10.43;6.38;;;18.80;70.40;;;;;;5132418;28;20048;-76
2024/03/20 13:27:52;;;;;;;9.52;6.00;;;19.00;70.30;;;;;;5127699;28;20105;-77
2024/03/20 13:30:38;;;;;;;10.65;5.97;;;19.00;70.50;;;;;;5102114;28;20104;-78
2024/03/20 13:33:25;;;;;;;10.77;5.35;;;19.20;70.40;;;;;;5102118;28;20074;-77
2024/03/20 13:36:18;;;;;;;18.25;6.13;;;19.20;70.30;;;;;;5082972;28;20563;-77
2024/03/20 13:39:17;;;;;;;8.60;5.57;;;19.20;69.60;;;;;;5101092;28;20034;-77
2024/03/20 13:42:23;;;;;;;9.25;5.05;;;19.40;70.00;;;;;;5095426;28;20046;-76
2024/03/20 13:45:15;;;;;;;9.45;5.32;;;19.40;69.70;;;;;;5105021;28;20070;-76
2024/03/20 13:48:01;;;;;;;12.18;5.72;;;19.40;69.40;;;;;;5097563;28;20065;-77
2024/03/20 13:50:48;;;;;;;8.45;5.22;;;19.40;69.00;;;;;;5092760;28;20081;-78
2024/03/20 13:53:34;;;;;;;8.52;4.90;;;19.40;68.80;;;;;;5094400;28;20103;-78
2024/03/20 13:56:20;;;;;;;10.23;4.65;;;19.50;68.40;;;;;;5093164;28;20551;-78
2024/03/20 13:59:06;;;;;;;14.50;4.15;;;19.50;68.60;;;;;;5101492;28;20044;-77
2024/03/20 14:01:52;;;;;;;10.35;4.93;;;19.60;68.60;;;;;;5105475;28;20499;-77
2024/03/20 14:04:38;;;;;;;10.75;4.68;;;19.60;68.30;;;;;;5111468;28;20036;-77
2024/03/20 14:07:26;;;;;;;10.00;4.93;;;19.70;68.60;;;;;;5099034;28;20131;-77
2024/03/20 14:10:19;;;;;;;7.53;4.57;;;19.80;68.20;;;;;;5104078;28;20031;-78
2024/03/20 14:13:11;;;;;;;8.45;4.90;;;19.90;67.70;;;;;;5110834;28;20028;-78
2024/03/20 14:15:57;;;;;;;8.60;5.22;;;19.90;67.10;;;;;;5110257;28;20054;-74
2024/03/20 14:18:43;;;;;;;7.65;4.55;;;20.00;67.20;;;;;;5105100;28;20078;-77
2024/03/20 14:21:30;;;;;;;7.82;4.75;;;20.00;67.20;;;;;;5101361;28;20043;-77
2024/03/20 14:24:18;;;;;;;10.80;4.90;;;20.00;66.70;;;;;;5047199;28;20040;-77
2024/03/20 14:27:12;;;;;;;7.80;4.60;;;20.00;66.60;;;;;;5104139;28;20047;-77
2024/03/20 14:29:58;;;;;;;9.23;4.97;;;20.10;66.40;;;;;;5108491;28;20491;-77
2024/03/20 14:32:44;;;;;;;8.73;4.57;;;20.10;66.20;;;;;;5107816;28;20052;-77
2024/03/20 14:35:30;;;;;;;8.68;4.43;;;20.10;66.00;;;;;;5099932;28;20093;-77
2024/03/20 14:41:21;;;;;;;7.47;4.50;;;20.10;65.90;;;;;;5109274;28;20043;-77
2024/03/20 14:44:07;;;;;;;10.07;5.30;;;20.10;66.00;;;;;;5104872;28;20032;-77
2024/03/20 14:46:54;;;;;;;8.60;5.15;;;20.10;65.70;;;;;;5093547;28;20178;-75
2024/03/20 14:49:45;;;;;;;6.63;3.53;;;20.10;65.40;;;;;;5105170;28;20048;-77
2024/03/20 14:52:30;;;;;;;7.20;3.50;;;20.10;65.40;;;;;;5082421;28;20093;-78
2024/03/20 14:55:17;;;;;;;5.10;3.00;;;20.10;64.90;;;;;;5110881;28;20070;-77
2024/03/20 14:58:04;;;;;;;6.00;3.00;;;20.00;64.20;;;;;;5105424;28;20119;-77
2024/03/20 15:00:49;;;;;;;7.65;3.50;;;19.90;64.10;;;;;;5108451;28;20040;-78
2024/03/20 15:03:35;;;;;;;8.60;3.88;;;19.90;63.90;;;;;;5098509;28;20380;-77
2024/03/20 15:06:22;;;;;;;9.07;3.83;;;19.80;64.00;;;;;;5108687;28;20443;-77
2024/03/20 15:09:08;;;;;;;7.93;3.97;;;19.70;64.10;;;;;;5106542;28;20399;-78
2024/03/20 15:11:54;;;;;;;5.90;3.38;;;19.70;64.30;;;;;;5007065;28;20045;-77
2024/03/20 15:14:41;;;;;;;7.35;3.65;;;19.60;64.40;;;;;;5100762;28;20056;-78
2024/03/20 15:17:27;;;;;;;4.68;2.90;;;19.50;64.10;;;;;;5002582;28;20114;-77
2024/03/20 15:20:13;;;;;;;6.57;3.05;;;19.40;64.00;;;;;;5091037;28;20089;-77
2024/03/20 15:22:59;;;;;;;4.97;3.25;;;19.40;63.90;;;;;;5106875;28;20067;-76
2024/03/20 15:25:45;;;;;;;6.13;3.75;;;19.30;63.90;;;;;;5101885;28;20045;-77
2024/03/20 15:28:31;;;;;;;10.23;5.18;;;19.20;64.00;;;;;;5107258;28;20376;-77
2024/03/20 15:31:18;;;;;;;8.15;4.50;;;19.20;64.20;;;;;;5107324;28;20039;-78
2024/03/20 15:34:04;;;;;;;8.35;4.90;;;19.20;64.40;;;;;;5104945;28;20042;-77
2024/03/20 15:36:51;;;;;;;10.68;4.78;;;19.10;64.60;;;;;;5106325;28;20083;-78
2024/03/20 15:39:38;;;;;;;9.63;5.03;;;19.00;64.70;;;;;;5111167;27;20038;-78
2024/03/20 15:42:24;;;;;;;10.82;4.63;;;19.00;64.80;;;;;;5118252;27;20035;-78
2024/03/20 15:45:14;;;;;;;13.85;5.82;;;19.00;64.90;;;;;;5113536;27;20400;-78
2024/03/20 15:48:00;;;;;;;7.85;5.13;;;18.90;64.90;;;;;;5115595;27;20086;-77
2024/03/20 15:50:49;;;;;;;8.77;5.07;;;18.90;65.10;;;;;;5112807;28;20036;-78
2024/03/20 15:53:35;;;;;;;8.55;5.22;;;18.80;65.10;;;;;;5104769;28;20051;-78
2024/03/20 15:56:22;;;;;;;12.15;7.00;;;18.80;65.10;;;;;;5103622;28;20056;-78
2024/03/20 15:59:10;;;;;;;14.43;6.90;;;18.70;65.20;;;;;;5105521;28;20039;-77
2024/03/20 16:01:56;;;;;;;11.95;6.47;;;18.70;65.30;;;;;;5104862;28;20403;-77
2024/03/20 16:04:44;;;;;;;18.70;7.18;;;18.70;65.30;;;;;;5105989;28;20109;-79
2024/03/20 16:07:29;;;;;;;12.68;6.28;;;18.70;65.40;;;;;;5099772;28;20050;-79
2024/03/20 16:10:20;;;;;;;11.65;5.82;;;18.60;65.50;;;;;;5107221;28;20035;-80
2024/03/20 16:13:06;;;;;;;9.90;5.85;;;18.50;65.60;;;;;;5102329;28;20046;-74
2024/03/20 16:15:52;;;;;;;12.75;6.28;;;18.50;65.70;;;;;;5112846;28;20612;-82
2024/03/20 16:18:38;;;;;;;10.13;4.53;;;18.50;65.80;;;;;;5095825;28;20093;-81
2024/03/20 16:21:24;;;;;;;10.55;5.72;;;18.40;65.70;;;;;;5101607;28;20043;-80
2024/03/20 16:24:10;;;;;;;8.30;4.78;;;18.40;66.00;;;;;;5038116;28;20192;-80
2024/03/20 16:26:56;;;;;;;9.27;5.70;;;18.40;65.90;;;;;;5104301;28;20097;-79
2024/03/20 16:29:42;;;;;;;10.05;5.75;;;18.30;66.00;;;;;;5096601;28;20075;-78
2024/03/20 16:32:29;;;;;;;12.65;5.13;;;18.30;66.20;;;;;;5107923;28;20040;-79
2024/03/20 16:35:16;;;;;;;7.88;4.50;;;18.30;66.20;;;;;;5107262;28;20115;-79
2024/03/20 16:38:02;;;;;;;10.82;5.40;;;18.20;66.50;;;;;;5131839;28;20042;-77
2024/03/20 16:40:48;;;;;;;11.43;4.82;;;18.20;66.50;;;;;;5122421;28;20055;-76
2024/03/20 16:43:34;;;;;;;9.63;5.05;;;18.20;66.50;;;;;;5136715;28;20088;-79
2024/03/20 16:46:20;;;;;;;12.00;5.55;;;18.20;66.70;;;;;;5135954;28;20039;-79
2024/03/20 16:49:06;;;;;;;8.10;4.40;;;18.10;66.70;;;;;;5107678;28;20075;-80
2024/03/20 16:51:52;;;;;;;9.20;5.22;;;18.10;66.80;;;;;;5109558;28;20049;-80
2024/03/20 16:54:38;;;;;;;9.63;5.45;;;18.00;66.80;;;;;;5095200;28;20071;-80
2024/03/20 16:57:25;;;;;;;10.50;4.80;;;18.00;66.90;;;;;;5104108;28;20070;-80
2024/03/20 17:00:11;;;;;;;7.78;5.10;;;17.90;66.90;;;;;;5106827;28;20047;-80
2024/03/20 17:02:58;;;;;;;11.98;5.63;;;17.90;67.40;;;;;;5105826;28;20043;-81
2024/03/20 17:05:46;;;;;;;10.43;5.22;;;17.90;67.70;;;;;;5107711;28;20047;-79
2024/03/20 17:08:32;;;;;;;14.77;5.82;;;17.80;67.20;;;;;;5108255;28;20048;-80
2024/03/20 17:11:19;;;;;;;10.98;5.30;;;17.80;67.20;;;;;;5101583;28;20079;-79
2024/03/20 17:14:05;;;;;;;7.30;4.68;;;17.80;67.40;;;;;;5003623;28;20057;-79
2024/03/20 17:16:52;;;;;;;9.55;5.50;;;17.70;67.30;;;;;;5025647;28;20072;-72
2024/03/20 17:19:39;;;;;;;11.15;5.28;;;17.60;67.40;;;;;;5019534;28;20486;-77
2024/03/20 17:22:26;;;;;;;10.00;6.03;;;17.60;67.40;;;;;;5024159;28;20042;-77
2024/03/20 17:25:12;;;;;;;13.32;5.85;;;17.50;67.30;;;;;;5027577;28;20053;-76
2024/03/20 17:27:58;;;;;;;7.57;4.75;;;17.40;67.30;;;;;;5021175;28;20045;-78
2024/03/20 17:30:44;;;;;;;10.38;5.70;;;17.40;67.60;;;;;;5022989;28;20558;-74
2024/03/20 17:33:31;;;;;;;11.63;6.43;;;17.30;67.70;;;;;;5036150;27;20410;-76
2024/03/20 17:36:17;;;;;;;9.32;5.65;;;17.30;67.70;;;;;;5020326;28;20053;-76
2024/03/20 17:39:04;;;;;;;12.48;6.45;;;17.30;67.80;;;;;;5030613;27;20088;-76
2024/03/20 17:41:51;;;;;;;15.13;6.35;;;17.20;67.90;;;;;;5027351;28;20041;-75
2024/03/20 17:44:38;;;;;;;12.52;6.55;;;17.10;68.00;;;;;;5080964;28;20037;-76
2024/03/20 17:47:25;;;;;;;13.38;6.63;;;17.10;68.10;;;;;;5016741;28;20420;-74
2024/03/20 17:50:11;;;;;;;14.55;6.88;;;17.00;68.20;;;;;;5028289;28;20246;-76
2024/03/20 17:52:57;;;;;;;12.70;7.28;;;17.00;68.50;;;;;;5024214;28;20124;-78
2024/03/20 17:55:44;;;;;;;12.35;7.10;;;16.90;68.70;;;;;;5037146;27;20055;-78
2024/03/20 17:58:30;;;;;;;12.82;7.65;;;16.90;68.70;;;;;;5048144;27;20141;-78
2024/03/20 18:01:18;;;;;;;12.43;7.20;;;16.90;68.90;;;;;;5050813;27;20042;-78
2024/03/20 18:04:04;;;;;;;12.50;7.53;;;16.80;69.00;;;;;;5012983;28;20064;-78
2024/03/20 18:06:50;;;;;;;16.02;7.80;;;16.70;69.60;;;;;;5072032;28;20045;-77
2024/03/20 18:09:37;;;;;;;13.00;8.73;;;16.70;69.20;;;;;;5013334;28;20038;-77
2024/03/20 18:12:24;;;;;;;12.57;8.32;;;16.60;69.40;;;;;;5013357;28;20075;-78
2024/03/20 18:15:16;;;;;;;11.93;7.85;;;16.60;69.50;;;;;;5089955;28;20528;-78
2024/03/20 18:18:03;;;;;;;16.38;8.80;;;16.60;69.60;;;;;;5097769;28;20495;-78
2024/03/20 18:20:49;;;;;;;18.35;8.40;;;16.50;69.90;;;;;;5069403;28;20104;-78
2024/03/20 18:23:35;;;;;;;13.80;8.77;;;16.40;69.90;;;;;;5099648;28;20043;-79
2024/03/20 18:26:21;;;;;;;12.82;8.02;;;16.40;70.10;;;;;;5103381;28;20044;-79
2024/03/20 18:29:07;;;;;;;15.18;8.32;;;16.40;70.20;;;;;;4997242;28;20510;-77
2024/03/20 18:31:53;;;;;;;13.50;8.38;;;16.30;70.30;;;;;;5004949;28;20405;-78
2024/03/20 18:34:41;;;;;;;15.57;8.35;;;16.30;70.50;;;;;;5076711;28;20043;-81
2024/03/20 18:37:26;;;;;;;15.50;8.55;;;16.20;70.60;;;;;;5015352;28;20088;-77
2024/03/20 18:40:16;;;;;;;14.20;8.80;;;16.20;70.70;;;;;;5011304;28;20042;-77
2024/03/20 18:43:04;;;;;;;14.10;7.30;;;16.10;70.90;;;;;;5005400;28;20375;-77
2024/03/20 18:45:55;;;;;;;13.40;7.47;;;16.00;71.00;;;;;;5017830;28;20030;-78
2024/03/20 18:48:40;;;;;;;11.20;7.07;;;16.00;71.20;;;;;;5110259;28;20051;-78
2024/03/20 18:51:26;;;;;;;13.18;7.57;;;15.90;71.30;;;;;;5112192;28;20032;-76
2024/03/20 18:54:13;;;;;;;13.10;8.50;;;15.90;71.60;;;;;;5108162;28;20047;-77
2024/03/20 18:57:04;;;;;;;12.38;7.75;;;15.90;71.70;;;;;;5096607;28;20507;-77
2024/03/20 18:59:51;;;;;;;12.55;7.32;;;15.90;71.80;;;;;;5114191;28;20044;-78
2024/03/20 19:02:37;;;;;;;12.00;7.00;;;15.80;71.90;;;;;;5112954;28;20441;-77
2024/03/20 19:05:23;;;;;;;12.43;7.45;;;15.80;72.10;;;;;;5103878;28;20466;-77
2024/03/20 19:08:10;;;;;;;11.93;7.35;;;15.70;72.20;;;;;;5101678;28;20572;-77
2024/03/20 19:10:56;;;;;;;13.35;8.02;;;15.70;72.20;;;;;;5096371;28;20032;-78
2024/03/20 19:13:42;;;;;;;11.73;7.22;;;15.60;72.20;;;;;;5113717;27;20047;-78
2024/03/20 19:16:30;;;;;;;15.27;7.63;;;15.60;72.50;;;;;;5099839;28;20043;-76
2024/03/20 19:19:17;;;;;;;13.50;7.97;;;15.60;72.50;;;;;;5097922;28;20043;-78
2024/03/20 19:22:04;;;;;;;11.50;7.30;;;15.50;72.50;;;;;;5116205;28;20690;-77
2024/03/20 19:24:54;;;;;;;14.73;7.72;;;15.50;72.80;;;;;;5113017;28;20050;-78
2024/03/20 19:27:40;;;;;;;12.95;7.20;;;15.50;72.90;;;;;;5105685;28;20423;-79
2024/03/20 19:30:27;;;;;;;11.45;7.32;;;15.50;73.10;;;;;;5002340;28;20515;-77
2024/03/20 19:33:13;;;;;;;11.27;7.47;;;15.50;73.10;;;;;;5017009;28;20406;-78
2024/03/20 19:35:59;;;;;;;14.90;8.15;;;15.50;73.10;;;;;;5007458;28;20034;-78